createdAt,value
2023-02-15T00:00:00.865Z,89.40
2023-02-15T00:01:00.846Z,89.50
2023-02-15T00:02:00.926Z,89.61
2023-02-15T00:03:00.885Z,89.61
2023-02-15T00:04:00.851Z,89.61
2023-02-15T00:05:00.855Z,89.61
2023-02-15T00:06:01.159Z,89.61
2023-02-15T00:07:00.804Z,89.61
2023-02-15T00:08:00.787Z,89.61
2023-02-15T00:09:00.816Z,89.50
2023-02-15T00:10:00.850Z,89.50
2023-02-15T00:11:00.742Z,89.44
2023-02-15T00:12:00.775Z,89.44
2023-02-15T00:13:00.732Z,89.34
2023-02-15T00:14:00.724Z,89.44
2023-02-15T00:15:00.784Z,89.44
2023-02-15T00:16:01.065Z,89.44
2023-02-15T00:17:00.717Z,89.54
2023-02-15T00:18:00.685Z,89.54
2023-02-15T00:19:00.703Z,89.65
2023-02-15T00:20:00.662Z,89.75
2023-02-15T00:21:00.673Z,89.86
2023-02-15T00:22:00.628Z,89.86
2023-02-15T00:23:00.617Z,89.86
2023-02-15T00:24:00.633Z,89.86
2023-02-15T00:25:00.649Z,89.96
2023-02-15T00:26:00.960Z,89.86
2023-02-15T00:27:00.576Z,89.86
2023-02-15T00:28:00.576Z,89.86
2023-02-15T00:29:00.553Z,89.86
2023-02-15T00:30:00.628Z,89.86
2023-02-15T00:31:00.672Z,89.75
2023-02-15T00:32:00.520Z,89.75
2023-02-15T00:33:00.512Z,89.65
2023-02-15T00:34:00.506Z,89.69
2023-02-15T00:35:00.563Z,89.69
2023-02-15T00:36:00.860Z,89.58
2023-02-15T00:37:00.464Z,89.69
2023-02-15T00:38:00.473Z,89.69
2023-02-15T00:39:00.499Z,89.69
2023-02-15T00:40:00.455Z,89.79
2023-02-15T00:41:00.445Z,89.89
2023-02-15T00:42:00.431Z,90.00
2023-02-15T00:43:00.394Z,90.31
2023-02-15T00:44:00.403Z,90.72
2023-02-15T00:45:00.422Z,91.03
2023-02-15T00:46:00.776Z,91.14
2023-02-15T00:47:00.500Z,91.14
2023-02-15T00:48:00.340Z,91.20
2023-02-15T00:49:00.361Z,91.31
2023-02-15T00:50:00.330Z,91.20
2023-02-15T00:51:00.329Z,91.20
2023-02-15T00:52:00.478Z,91.20
2023-02-15T00:53:00.331Z,91.20
2023-02-15T00:54:00.306Z,91.20
2023-02-15T00:55:00.269Z,91.20
2023-02-15T00:56:00.745Z,91.20
2023-02-15T00:57:00.261Z,91.00
2023-02-15T00:58:00.238Z,90.79
2023-02-15T00:59:00.243Z,90.58
2023-02-15T01:00:00.289Z,90.48
2023-02-15T01:01:00.310Z,90.27
2023-02-15T01:02:00.228Z,90.10
2023-02-15T01:03:00.200Z,90.10
2023-02-15T01:04:00.245Z,90.00
2023-02-15T01:05:00.214Z,90.00
2023-02-15T01:06:00.539Z,89.89
2023-02-15T01:07:00.170Z,89.89
2023-02-15T01:08:00.159Z,89.79
2023-02-15T01:09:00.138Z,89.79
2023-02-15T01:10:00.133Z,89.69
2023-02-15T01:11:00.117Z,89.58
2023-02-15T01:12:00.134Z,89.58
2023-02-15T01:13:00.118Z,89.48
2023-02-15T01:14:00.094Z,89.42
2023-02-15T01:15:00.102Z,89.42
2023-02-15T01:16:00.584Z,89.42
2023-02-15T01:17:00.121Z,89.42
2023-02-15T01:18:00.043Z,89.42
2023-02-15T01:19:00.036Z,89.42
2023-02-15T01:20:00.035Z,89.52
2023-02-15T01:21:00.041Z,89.52
2023-02-15T01:22:00.045Z,89.52
2023-02-15T01:22:59.992Z,89.42
2023-02-15T01:24:00.014Z,89.42
2023-02-15T01:24:59.969Z,89.42
2023-02-15T01:26:00.315Z,89.42
2023-02-15T01:26:59.972Z,89.52
2023-02-15T01:27:59.991Z,89.52
2023-02-15T01:28:59.930Z,89.52
2023-02-15T01:29:59.957Z,89.52
2023-02-15T01:30:59.977Z,89.52
2023-02-15T01:32:01.836Z,89.52
2023-02-15T01:32:59.913Z,89.52
2023-02-15T01:33:59.883Z,89.42
2023-02-15T01:34:59.880Z,89.31
2023-02-15T01:36:00.206Z,89.21
2023-02-15T01:36:59.913Z,89.15
2023-02-15T01:37:59.832Z,89.15
2023-02-15T01:38:59.830Z,89.04
2023-02-15T01:39:59.867Z,89.04
2023-02-15T01:40:59.799Z,89.04
2023-02-15T01:41:59.820Z,89.04
2023-02-15T01:42:59.797Z,89.15
2023-02-15T01:43:59.784Z,89.25
2023-02-15T01:44:59.772Z,89.36
2023-02-15T01:46:00.292Z,89.36
2023-02-15T01:46:59.728Z,89.46
2023-02-15T01:47:59.808Z,89.46
2023-02-15T01:48:59.748Z,89.46
2023-02-15T01:49:59.698Z,89.46
2023-02-15T01:50:59.925Z,89.46
2023-02-15T01:51:59.809Z,89.46
2023-02-15T01:52:59.676Z,89.46
2023-02-15T01:53:59.680Z,89.36
2023-02-15T01:54:59.726Z,89.36
2023-02-15T01:56:00.072Z,89.46
2023-02-15T01:56:59.671Z,89.56
2023-02-15T01:57:59.613Z,89.67
2023-02-15T01:58:59.603Z,89.67
2023-02-15T01:59:59.615Z,89.67
2023-02-15T02:01:01.117Z,89.70
2023-02-15T02:01:59.562Z,89.70
2023-02-15T02:02:59.623Z,89.70
2023-02-15T02:03:59.563Z,89.60
2023-02-15T02:04:59.575Z,89.60
2023-02-15T02:05:59.794Z,89.70
2023-02-15T02:06:59.523Z,89.92
2023-02-15T02:07:59.510Z,89.92
2023-02-15T02:08:59.527Z,90.02
2023-02-15T02:09:59.492Z,90.12
2023-02-15T02:10:59.539Z,90.12
2023-02-15T02:11:59.524Z,90.23
2023-02-15T02:12:59.468Z,90.33
2023-02-15T02:13:59.522Z,90.39
2023-02-15T02:14:59.452Z,90.39
2023-02-15T02:15:59.940Z,90.29
2023-02-15T02:16:59.411Z,90.19
2023-02-15T02:17:59.406Z,90.08
2023-02-15T02:18:59.391Z,90.02
2023-02-15T02:19:59.429Z,89.92
2023-02-15T02:20:59.440Z,89.70
2023-02-15T02:21:59.364Z,89.70
2023-02-15T02:22:59.384Z,89.60
2023-02-15T02:23:59.341Z,89.50
2023-02-15T02:24:59.392Z,89.50
2023-02-15T02:25:59.757Z,89.50
2023-02-15T02:26:59.338Z,89.43
2023-02-15T02:27:59.314Z,89.43
2023-02-15T02:28:59.299Z,89.43
2023-02-15T02:29:59.400Z,89.43
2023-02-15T02:30:59.438Z,89.43
2023-02-15T02:31:59.287Z,89.43
2023-02-15T02:32:59.248Z,89.54
2023-02-15T02:33:59.298Z,89.75
2023-02-15T02:34:59.248Z,89.85
2023-02-15T02:35:59.588Z,89.85
2023-02-15T02:36:59.230Z,89.95
2023-02-15T02:37:59.220Z,89.95
2023-02-15T02:38:59.248Z,90.06
2023-02-15T02:39:59.181Z,90.16
2023-02-15T02:40:59.176Z,90.26
2023-02-15T02:41:59.160Z,90.26
2023-02-15T02:42:59.157Z,90.26
2023-02-15T02:43:59.146Z,90.37
2023-02-15T02:44:59.125Z,90.47
2023-02-15T02:45:59.382Z,90.58
2023-02-15T02:46:59.158Z,90.54
2023-02-15T02:47:59.114Z,90.44
2023-02-15T02:48:59.137Z,90.44
2023-02-15T02:49:59.101Z,90.33
2023-02-15T02:50:59.077Z,90.26
2023-02-15T02:51:59.073Z,90.16
2023-02-15T02:52:59.046Z,90.06
2023-02-15T02:53:59.026Z,89.95
2023-02-15T02:54:59.065Z,89.85
2023-02-15T02:55:59.142Z,89.85
2023-02-15T02:56:59.016Z,89.75
2023-02-15T02:57:58.985Z,89.75
2023-02-15T02:58:58.976Z,89.79
2023-02-15T02:59:59.044Z,89.75
2023-02-15T03:00:59.018Z,89.79
2023-02-15T03:01:59.025Z,89.79
2023-02-15T03:02:59.027Z,89.79
2023-02-15T03:03:58.988Z,89.79
2023-02-15T03:04:58.945Z,89.69
2023-02-15T03:05:59.064Z,89.79
2023-02-15T03:06:58.903Z,89.79
2023-02-15T03:07:58.901Z,89.79
2023-02-15T03:08:58.946Z,89.79
2023-02-15T03:09:58.865Z,89.79
2023-02-15T03:10:58.845Z,89.79
2023-02-15T03:11:58.862Z,89.89
2023-02-15T03:12:58.826Z,89.83
2023-02-15T03:13:58.975Z,89.89
2023-02-15T03:14:58.798Z,90.10
2023-02-15T03:15:58.956Z,90.31
2023-02-15T03:16:58.819Z,90.31
2023-02-15T03:17:58.805Z,90.41
2023-02-15T03:18:58.879Z,90.41
2023-02-15T03:19:58.769Z,90.52
2023-02-15T03:20:58.786Z,90.72
2023-02-15T03:21:58.868Z,90.83
2023-02-15T03:22:58.745Z,90.83
2023-02-15T03:23:58.740Z,90.72
2023-02-15T03:24:58.718Z,90.83
2023-02-15T03:25:58.756Z,90.93
2023-02-15T03:26:58.690Z,91.04
2023-02-15T03:27:58.697Z,91.14
2023-02-15T03:28:58.679Z,91.14
2023-02-15T03:29:58.694Z,91.14
2023-02-15T03:30:58.765Z,91.04
2023-02-15T03:31:58.880Z,91.04
2023-02-15T03:32:58.627Z,91.00
2023-02-15T03:33:58.713Z,91.10
2023-02-15T03:34:58.659Z,91.10
2023-02-15T03:35:58.644Z,91.10
2023-02-15T03:36:58.586Z,91.00
2023-02-15T03:37:58.606Z,91.00
2023-02-15T03:38:58.577Z,90.89
2023-02-15T03:39:58.567Z,90.69
2023-02-15T03:40:58.606Z,90.47
2023-02-15T03:41:58.526Z,90.37
2023-02-15T03:42:58.536Z,90.26
2023-02-15T03:43:58.506Z,90.26
2023-02-15T03:44:58.516Z,90.20
2023-02-15T03:45:58.496Z,90.16
2023-02-15T03:46:58.529Z,90.20
2023-02-15T03:47:58.458Z,90.10
2023-02-15T03:48:58.470Z,90.00
2023-02-15T03:49:58.467Z,89.79
2023-02-15T03:50:58.446Z,89.69
2023-02-15T03:51:58.456Z,89.69
2023-02-15T03:52:58.405Z,89.69
2023-02-15T03:53:58.426Z,89.69
2023-02-15T03:54:58.404Z,89.58
2023-02-15T03:55:58.410Z,89.58
2023-02-15T03:56:58.412Z,89.58
2023-02-15T03:57:58.461Z,89.48
2023-02-15T03:58:58.383Z,89.41
2023-02-15T03:59:58.341Z,89.41
2023-02-15T04:00:58.385Z,89.31
2023-02-15T04:01:58.329Z,89.31
2023-02-15T04:02:58.404Z,89.31
2023-02-15T04:03:58.320Z,89.31
2023-02-15T04:04:58.292Z,89.31
2023-02-15T04:05:58.270Z,89.52
2023-02-15T04:06:58.280Z,89.73
2023-02-15T04:07:58.253Z,89.83
2023-02-15T04:08:58.333Z,89.94
2023-02-15T04:09:58.266Z,90.04
2023-02-15T04:10:58.238Z,90.35
2023-02-15T04:11:58.217Z,91.04
2023-02-15T04:12:58.235Z,91.56
2023-02-15T04:13:58.198Z,92.08
2023-02-15T04:14:58.200Z,92.55
2023-02-15T04:15:58.220Z,92.86
2023-02-15T04:16:58.199Z,93.24
2023-02-15T04:17:58.178Z,93.45
2023-02-15T04:18:58.133Z,93.45
2023-02-15T04:19:58.136Z,93.41
2023-02-15T04:20:58.120Z,93.20
2023-02-15T04:21:58.164Z,92.99
2023-02-15T04:22:58.095Z,92.57
2023-02-15T04:23:58.096Z,92.16
2023-02-15T04:24:58.094Z,91.85
2023-02-15T04:25:58.064Z,91.53
2023-02-15T04:26:58.083Z,91.12
2023-02-15T04:27:58.066Z,90.75
2023-02-15T04:28:58.045Z,90.23
2023-02-15T04:29:58.138Z,89.81
2023-02-15T04:30:58.035Z,89.50
2023-02-15T04:31:58.094Z,89.18
2023-02-15T04:32:58.004Z,89.12
2023-02-15T04:33:57.972Z,89.02
2023-02-15T04:34:57.990Z,88.81
2023-02-15T04:35:57.979Z,88.71
2023-02-15T04:36:58.002Z,88.60
2023-02-15T04:37:57.990Z,88.50
2023-02-15T04:38:57.927Z,88.50
2023-02-15T04:39:57.919Z,88.43
2023-02-15T04:40:57.953Z,88.43
2023-02-15T04:41:57.886Z,88.43
2023-02-15T04:42:57.900Z,88.33
2023-02-15T04:43:57.887Z,88.33
2023-02-15T04:44:57.877Z,88.37
2023-02-15T04:45:57.892Z,88.37
2023-02-15T04:46:57.897Z,88.37
2023-02-15T04:47:57.827Z,88.37
2023-02-15T04:48:57.819Z,88.48
2023-02-15T04:49:58.242Z,88.48
2023-02-15T04:50:57.824Z,88.58
2023-02-15T04:51:57.852Z,88.68
2023-02-15T04:52:57.780Z,88.79
2023-02-15T04:53:57.809Z,88.83
2023-02-15T04:54:57.779Z,88.93
2023-02-15T04:55:57.770Z,88.93
2023-02-15T04:56:57.774Z,89.04
2023-02-15T04:57:57.759Z,89.04
2023-02-15T04:58:57.736Z,89.14
2023-02-15T04:59:57.716Z,89.25
2023-02-15T05:00:57.779Z,89.25
2023-02-15T05:01:57.676Z,89.35
2023-02-15T05:02:57.730Z,89.35
2023-02-15T05:03:57.777Z,89.50
2023-02-15T05:04:57.684Z,89.50
2023-02-15T05:05:57.633Z,89.60
2023-02-15T05:06:57.666Z,89.70
2023-02-15T05:07:57.628Z,89.70
2023-02-15T05:08:57.613Z,90.01
2023-02-15T05:09:57.609Z,90.22
2023-02-15T05:10:57.579Z,90.39
2023-02-15T05:11:57.628Z,90.39
2023-02-15T05:12:57.561Z,90.50
2023-02-15T05:13:57.591Z,90.50
2023-02-15T05:14:57.543Z,90.50
2023-02-15T05:15:57.526Z,90.50
2023-02-15T05:16:57.636Z,90.50
2023-02-15T05:17:57.514Z,90.44
2023-02-15T05:18:57.504Z,90.44
2023-02-15T05:19:57.496Z,90.44
2023-02-15T05:20:57.478Z,90.44
2023-02-15T05:21:57.467Z,90.44
2023-02-15T05:22:57.494Z,90.44
2023-02-15T05:23:57.516Z,90.44
2023-02-15T05:24:57.425Z,90.33
2023-02-15T05:25:57.416Z,90.33
2023-02-15T05:26:57.425Z,90.33
2023-02-15T05:28:01.185Z,90.22
2023-02-15T05:28:57.455Z,90.22
2023-02-15T05:29:57.595Z,90.22
2023-02-15T05:30:57.755Z,90.22
2023-02-15T05:31:57.599Z,90.33
2023-02-15T05:32:57.411Z,90.33
2023-02-15T05:33:57.375Z,90.44
2023-02-15T05:34:57.317Z,90.95
2023-02-15T05:35:57.348Z,91.96
2023-02-15T05:36:57.317Z,92.74
2023-02-15T05:37:57.298Z,93.27
2023-02-15T05:38:57.306Z,93.54
2023-02-15T05:39:57.287Z,93.64
2023-02-15T05:40:57.268Z,93.74
2023-02-15T05:41:57.297Z,93.74
2023-02-15T05:42:57.247Z,93.64
2023-02-15T05:43:57.346Z,93.54
2023-02-15T05:44:57.225Z,93.43
2023-02-15T05:45:57.359Z,93.43
2023-02-15T05:46:57.202Z,93.33
2023-02-15T05:47:57.194Z,93.54
2023-02-15T05:48:57.175Z,93.80
2023-02-15T05:49:57.210Z,94.01
2023-02-15T05:50:57.176Z,94.01
2023-02-15T05:51:57.167Z,93.91
2023-02-15T05:52:57.172Z,93.70
2023-02-15T05:53:57.143Z,93.39
2023-02-15T05:54:57.116Z,93.29
2023-02-15T05:55:57.156Z,93.49
2023-02-15T05:56:57.107Z,93.49
2023-02-15T05:57:57.085Z,93.55
2023-02-15T05:58:57.068Z,93.66
2023-02-15T05:59:57.078Z,93.76
2023-02-15T06:00:57.118Z,93.55
2023-02-15T06:01:57.035Z,93.24
2023-02-15T06:02:57.063Z,92.82
2023-02-15T06:03:57.035Z,92.41
2023-02-15T06:04:57.053Z,91.89
2023-02-15T06:05:57.012Z,91.47
2023-02-15T06:06:57.046Z,91.37
2023-02-15T06:07:56.982Z,90.95
2023-02-15T06:08:57.005Z,90.54
2023-02-15T06:09:56.980Z,90.16
2023-02-15T06:10:56.948Z,89.85
2023-02-15T06:11:56.974Z,89.54
2023-02-15T06:12:58.769Z,89.23
2023-02-15T06:13:56.938Z,88.96
2023-02-15T06:14:56.965Z,88.75
2023-02-15T06:15:57.023Z,88.64
2023-02-15T06:16:56.881Z,88.68
2023-02-15T06:17:56.876Z,88.68
2023-02-15T06:18:56.865Z,88.68
2023-02-15T06:19:56.872Z,88.79
2023-02-15T06:20:56.883Z,88.79
2023-02-15T06:21:56.875Z,88.89
2023-02-15T06:22:56.816Z,89.00
2023-02-15T06:23:56.831Z,89.10
2023-02-15T06:24:56.838Z,89.20
2023-02-15T06:25:56.809Z,89.20
2023-02-15T06:26:57.013Z,89.20
2023-02-15T06:27:56.770Z,89.20
2023-02-15T06:28:56.783Z,89.20
2023-02-15T06:29:56.766Z,89.20
2023-02-15T06:30:56.912Z,89.31
2023-02-15T06:31:56.890Z,89.31
2023-02-15T06:32:56.732Z,89.20
2023-02-15T06:33:56.692Z,89.20
2023-02-15T06:34:56.689Z,89.31
2023-02-15T06:36:04.146Z,89.31
2023-02-15T06:36:56.685Z,89.31
2023-02-15T06:37:56.665Z,89.31
2023-02-15T06:38:56.705Z,89.31
2023-02-15T06:39:56.661Z,89.41
2023-02-15T06:40:56.637Z,89.41
2023-02-15T06:41:56.686Z,89.41
2023-02-15T06:42:56.610Z,89.45
2023-02-15T06:43:56.704Z,89.45
2023-02-15T06:44:56.591Z,89.45
2023-02-15T06:45:56.589Z,89.45
2023-02-15T06:46:56.568Z,89.56
2023-02-15T06:47:56.743Z,89.87
2023-02-15T06:48:56.589Z,90.19
2023-02-15T06:49:56.926Z,90.50
2023-02-15T06:50:56.541Z,90.70
2023-02-15T06:51:56.526Z,91.02
2023-02-15T06:52:56.512Z,91.12
2023-02-15T06:53:56.504Z,91.33
2023-02-15T06:54:56.492Z,91.43
2023-02-15T06:55:56.793Z,91.53
2023-02-15T06:56:56.462Z,91.53
2023-02-15T06:57:56.482Z,91.53
2023-02-15T06:58:56.443Z,91.53
2023-02-15T06:59:56.421Z,91.64
2023-02-15T07:00:56.493Z,91.85
2023-02-15T07:01:56.450Z,91.96
2023-02-15T07:02:56.399Z,91.96
2023-02-15T07:03:56.420Z,92.06
2023-02-15T07:04:56.518Z,92.06
2023-02-15T07:05:56.389Z,92.06
2023-02-15T07:06:56.349Z,92.16
2023-02-15T07:07:56.337Z,92.12
2023-02-15T07:08:56.398Z,91.85
2023-02-15T07:09:56.362Z,91.75
2023-02-15T07:10:56.306Z,91.75
2023-02-15T07:11:56.286Z,91.85
2023-02-15T07:12:56.297Z,91.85
2023-02-15T07:13:56.273Z,91.85
2023-02-15T07:14:56.330Z,91.85
2023-02-15T07:15:56.280Z,91.85
2023-02-15T07:16:56.245Z,91.85
2023-02-15T07:17:56.227Z,91.85
2023-02-15T07:18:56.213Z,91.85
2023-02-15T07:19:56.206Z,91.85
2023-02-15T07:20:56.265Z,91.75
2023-02-15T07:21:56.183Z,91.75
2023-02-15T07:22:56.174Z,91.75
2023-02-15T07:23:56.163Z,91.75
2023-02-15T07:24:56.191Z,91.75
2023-02-15T07:25:56.220Z,91.85
2023-02-15T07:26:56.182Z,91.85
2023-02-15T07:27:56.122Z,91.85
2023-02-15T07:28:56.118Z,91.81
2023-02-15T07:29:56.132Z,91.81
2023-02-15T07:30:56.185Z,91.91
2023-02-15T07:31:56.115Z,91.91
2023-02-15T07:32:56.070Z,91.91
2023-02-15T07:33:56.091Z,91.91
2023-02-15T07:34:56.049Z,91.91
2023-02-15T07:35:56.110Z,91.91
2023-02-15T07:36:56.028Z,91.91
2023-02-15T07:37:56.012Z,91.91
2023-02-15T07:38:56.010Z,91.91
2023-02-15T07:39:56.018Z,91.91
2023-02-15T07:40:57.938Z,91.91
2023-02-15T07:41:55.999Z,92.02
2023-02-15T07:42:56.089Z,91.97
2023-02-15T07:43:55.949Z,92.18
2023-02-15T07:44:55.980Z,92.49
2023-02-15T07:45:55.929Z,92.55
2023-02-15T07:46:56.074Z,92.66
2023-02-15T07:47:55.924Z,92.66
2023-02-15T07:48:55.954Z,92.66
2023-02-15T07:49:55.879Z,92.66
2023-02-15T07:50:55.886Z,92.55
2023-02-15T07:51:55.888Z,92.30
2023-02-15T07:52:55.862Z,92.30
2023-02-15T07:53:55.846Z,92.20
2023-02-15T07:54:55.977Z,92.20
2023-02-15T07:55:55.822Z,92.20
2023-02-15T07:56:55.817Z,92.10
2023-02-15T07:57:55.813Z,92.10
2023-02-15T07:58:55.800Z,92.10
2023-02-15T07:59:55.798Z,92.16
2023-02-15T08:00:55.814Z,92.16
2023-02-15T08:01:55.765Z,92.16
2023-02-15T08:02:55.776Z,92.05
2023-02-15T08:03:55.804Z,92.05
2023-02-15T08:04:55.729Z,92.01
2023-02-15T08:05:55.767Z,92.01
2023-02-15T08:06:55.713Z,91.91
2023-02-15T08:07:55.695Z,91.80
2023-02-15T08:08:55.694Z,91.80
2023-02-15T08:09:55.678Z,91.70
2023-02-15T08:10:55.685Z,91.66
2023-02-15T08:11:55.705Z,91.55
2023-02-15T08:12:55.661Z,91.45
2023-02-15T08:13:55.638Z,91.35
2023-02-15T08:14:55.624Z,91.24
2023-02-15T08:15:55.643Z,91.14
2023-02-15T08:16:55.653Z,91.03
2023-02-15T08:17:55.618Z,90.89
2023-02-15T08:18:55.588Z,90.79
2023-02-15T08:19:55.578Z,90.79
2023-02-15T08:20:55.578Z,90.79
2023-02-15T08:21:55.585Z,90.79
2023-02-15T08:22:55.550Z,90.69
2023-02-15T08:23:55.531Z,90.64
2023-02-15T08:24:55.529Z,90.54
2023-02-15T08:25:55.511Z,90.54
2023-02-15T08:26:55.537Z,90.54
2023-02-15T08:27:55.500Z,90.54
2023-02-15T08:28:55.486Z,90.44
2023-02-15T08:29:55.529Z,90.44
2023-02-15T08:30:55.522Z,90.33
2023-02-15T08:31:55.577Z,90.33
2023-02-15T08:32:55.440Z,90.29
2023-02-15T08:33:55.430Z,90.19
2023-02-15T08:34:58.642Z,90.19
2023-02-15T08:35:55.410Z,90.08
2023-02-15T08:36:55.434Z,89.87
2023-02-15T08:37:55.387Z,89.77
2023-02-15T08:38:55.391Z,89.67
2023-02-15T08:39:58.597Z,89.56
2023-02-15T08:40:55.361Z,89.52
2023-02-15T08:41:55.391Z,89.73
2023-02-15T08:42:55.348Z,90.04
2023-02-15T08:43:55.328Z,90.14
2023-02-15T08:44:55.343Z,89.83
2023-02-15T08:45:55.336Z,89.52
2023-02-15T08:46:55.288Z,89.58
2023-02-15T08:47:55.350Z,89.69
2023-02-15T08:48:55.280Z,89.58
2023-02-15T08:49:55.266Z,89.58
2023-02-15T08:50:55.256Z,89.58
2023-02-15T08:51:55.365Z,89.38
2023-02-15T08:52:55.233Z,89.13
2023-02-15T08:53:55.216Z,88.92
2023-02-15T08:54:55.219Z,88.61
2023-02-15T08:55:55.285Z,87.68
2023-02-15T08:56:55.222Z,87.06
2023-02-15T08:57:55.169Z,86.54
2023-02-15T08:58:55.167Z,86.13
2023-02-15T08:59:55.202Z,85.82
2023-02-15T09:00:55.163Z,85.68
2023-02-15T09:01:55.197Z,85.47
2023-02-15T09:02:55.125Z,85.36
2023-02-15T09:03:55.104Z,85.36
2023-02-15T09:04:55.206Z,85.36
2023-02-15T09:05:55.085Z,85.16
2023-02-15T09:06:55.075Z,84.84
2023-02-15T09:07:55.067Z,84.50
2023-02-15T09:08:55.061Z,84.19
2023-02-15T09:09:55.077Z,83.87
2023-02-15T09:10:55.070Z,83.56
2023-02-15T09:11:59.238Z,83.46
2023-02-15T09:12:55.067Z,83.36
2023-02-15T09:13:55.011Z,83.11
2023-02-15T09:14:55.086Z,83.11
2023-02-15T09:15:55.009Z,83.01
2023-02-15T09:16:55.025Z,82.70
2023-02-15T09:17:54.968Z,82.50
2023-02-15T09:18:54.951Z,82.50
2023-02-15T09:19:54.964Z,82.50
2023-02-15T09:20:54.923Z,82.39
2023-02-15T09:21:54.964Z,82.50
2023-02-15T09:22:57.302Z,82.45
2023-02-15T09:23:54.892Z,82.45
2023-02-15T09:24:54.882Z,82.25
2023-02-15T09:25:56.582Z,82.25
2023-02-15T09:26:54.963Z,82.15
2023-02-15T09:27:54.856Z,82.04
2023-02-15T09:28:54.849Z,81.84
2023-02-15T09:29:54.888Z,81.80
2023-02-15T09:30:54.928Z,81.70
2023-02-15T09:31:54.913Z,81.59
2023-02-15T09:32:54.810Z,81.70
2023-02-15T09:33:54.811Z,81.59
2023-02-15T09:34:54.869Z,81.49
2023-02-15T09:35:54.770Z,81.28
2023-02-15T09:36:54.773Z,80.97
2023-02-15T09:37:54.749Z,80.83
2023-02-15T09:38:54.739Z,80.73
2023-02-15T09:39:54.722Z,80.73
2023-02-15T09:40:54.758Z,80.73
2023-02-15T09:41:54.718Z,80.52
2023-02-15T09:42:54.730Z,80.11
2023-02-15T09:43:54.679Z,79.86
2023-02-15T09:44:54.713Z,79.66
2023-02-15T09:45:54.739Z,79.25
2023-02-15T09:46:54.671Z,79.45
2023-02-15T09:47:56.806Z,79.45
2023-02-15T09:48:54.627Z,79.35
2023-02-15T09:49:54.614Z,79.14
2023-02-15T09:50:54.649Z,79.04
2023-02-15T09:51:54.598Z,78.80
2023-02-15T09:52:54.595Z,78.59
2023-02-15T09:53:54.630Z,78.59
2023-02-15T09:54:54.575Z,78.69
2023-02-15T09:55:54.597Z,78.69
2023-02-15T09:56:54.544Z,78.49
2023-02-15T09:57:54.531Z,78.18
2023-02-15T09:58:54.529Z,77.94
2023-02-15T09:59:54.520Z,77.94
2023-02-15T10:00:54.552Z,78.04
2023-02-15T10:01:54.542Z,77.73
2023-02-15T10:02:54.500Z,77.73
2023-02-15T10:03:54.511Z,77.69
2023-02-15T10:04:54.579Z,77.80
2023-02-15T10:05:54.462Z,77.69
2023-02-15T10:06:54.450Z,77.38
2023-02-15T10:07:54.501Z,76.76
2023-02-15T10:08:54.420Z,76.32
2023-02-15T10:09:54.412Z,76.32
2023-02-15T10:10:54.405Z,76.32
2023-02-15T10:11:54.448Z,75.90
2023-02-15T10:12:54.393Z,75.60
2023-02-15T10:13:54.377Z,75.15
2023-02-15T10:14:54.350Z,74.63
2023-02-15T10:15:54.366Z,74.33
2023-02-15T10:16:54.358Z,74.33
2023-02-15T10:17:54.600Z,74.12
2023-02-15T10:18:54.349Z,73.98
2023-02-15T10:19:54.300Z,73.88
2023-02-15T10:20:54.288Z,73.68
2023-02-15T10:21:54.278Z,73.47
2023-02-15T10:22:54.380Z,73.33
2023-02-15T10:23:54.329Z,73.23
2023-02-15T10:24:54.248Z,73.02
2023-02-15T10:25:54.240Z,72.78
2023-02-15T10:26:54.266Z,72.47
2023-02-15T10:27:54.339Z,72.06
2023-02-15T10:28:54.213Z,71.66
2023-02-15T10:29:54.272Z,71.34
2023-02-15T10:30:54.279Z,71.11
2023-02-15T10:31:54.385Z,70.90
2023-02-15T10:32:54.197Z,71.11
2023-02-15T10:33:54.159Z,71.31
2023-02-15T10:34:54.150Z,70.90
2023-02-15T10:35:54.137Z,70.70
2023-02-15T10:36:54.136Z,70.90
2023-02-15T10:37:54.188Z,70.70
2023-02-15T10:38:54.102Z,70.70
2023-02-15T10:39:54.098Z,70.59
2023-02-15T10:40:54.079Z,70.15
2023-02-15T10:41:54.142Z,69.84
2023-02-15T10:42:54.064Z,69.94
2023-02-15T10:43:54.049Z,69.84
2023-02-15T10:44:54.037Z,69.84
2023-02-15T10:45:54.099Z,69.94
2023-02-15T10:46:54.014Z,70.01
2023-02-15T10:47:54.590Z,70.63
2023-02-15T10:48:53.995Z,70.01
2023-02-15T10:49:54.026Z,69.91
2023-02-15T10:50:53.998Z,69.91
2023-02-15T10:51:53.966Z,69.91
2023-02-15T10:52:57.017Z,69.81
2023-02-15T10:53:53.979Z,69.19
2023-02-15T10:54:53.955Z,68.96
2023-02-15T10:55:53.925Z,68.85
2023-02-15T10:56:53.909Z,68.75
2023-02-15T10:57:53.927Z,68.54
2023-02-15T10:58:53.885Z,68.44
2023-02-15T10:59:53.876Z,68.44
2023-02-15T11:00:53.995Z,68.41
2023-02-15T11:01:53.928Z,68.30
2023-02-15T11:02:53.851Z,68.41
2023-02-15T11:03:53.842Z,68.51
2023-02-15T11:04:53.898Z,68.62
2023-02-15T11:05:53.816Z,68.62
2023-02-15T11:06:53.856Z,68.30
2023-02-15T11:07:53.825Z,68.07
2023-02-15T11:08:53.795Z,67.56
2023-02-15T11:09:53.836Z,67.56
2023-02-15T11:10:53.772Z,67.46
2023-02-15T11:11:53.780Z,67.11
2023-02-15T11:12:53.738Z,67.11
2023-02-15T11:13:53.725Z,67.32
2023-02-15T11:14:53.718Z,67.22
2023-02-15T11:15:53.829Z,66.50
2023-02-15T11:16:53.696Z,66.71
2023-02-15T11:17:53.694Z,66.71
2023-02-15T11:18:53.664Z,66.71
2023-02-15T11:19:53.665Z,66.37
2023-02-15T11:20:53.744Z,66.16
2023-02-15T11:21:53.686Z,66.06
2023-02-15T11:22:53.681Z,65.96
2023-02-15T11:23:53.630Z,65.86
2023-02-15T11:24:53.617Z,65.72
2023-02-15T11:25:53.656Z,65.21
2023-02-15T11:26:53.593Z,65.52
2023-02-15T11:27:53.593Z,65.31
2023-02-15T11:28:53.564Z,65.42
2023-02-15T11:29:53.689Z,65.21
2023-02-15T11:30:53.673Z,65.21
2023-02-15T11:31:53.638Z,64.80
2023-02-15T11:32:53.526Z,64.06
2023-02-15T11:33:53.533Z,63.75
2023-02-15T11:34:53.503Z,63.54
2023-02-15T11:35:53.494Z,63.10
2023-02-15T11:36:53.473Z,63.21
2023-02-15T11:37:56.722Z,63.31
2023-02-15T11:38:53.464Z,63.21
2023-02-15T11:39:53.463Z,63.31
2023-02-15T11:40:53.446Z,63.51
2023-02-15T11:41:53.431Z,63.41
2023-02-15T11:42:53.468Z,63.31
2023-02-15T11:43:53.421Z,63.51
2023-02-15T11:44:53.394Z,63.07
2023-02-15T11:45:53.469Z,62.46
2023-02-15T11:46:53.361Z,62.16
2023-02-15T11:47:53.361Z,62.05
2023-02-15T11:48:53.371Z,62.16
2023-02-15T11:49:53.387Z,62.26
2023-02-15T11:50:53.338Z,61.31
2023-02-15T11:51:53.383Z,61.31
2023-02-15T11:52:53.306Z,61.41
2023-02-15T11:53:53.310Z,61.21
2023-02-15T11:54:53.304Z,61.10
2023-02-15T11:55:53.277Z,60.77
2023-02-15T11:56:53.321Z,60.36
2023-02-15T11:57:53.249Z,60.26
2023-02-15T11:58:53.255Z,59.95
2023-02-15T11:59:53.303Z,60.05
2023-02-15T12:00:53.229Z,60.16
2023-02-15T12:01:53.240Z,60.36
2023-02-15T12:02:53.280Z,60.23
2023-02-15T12:03:53.278Z,60.13
2023-02-15T12:04:53.214Z,59.72
2023-02-15T12:05:53.168Z,59.62
2023-02-15T12:06:53.159Z,59.62
2023-02-15T12:07:53.174Z,59.41
2023-02-15T12:08:53.130Z,59.00
2023-02-15T12:09:53.131Z,59.00
2023-02-15T12:10:53.160Z,58.91
2023-02-15T12:11:53.098Z,59.08
2023-02-15T12:12:53.088Z,59.18
2023-02-15T12:13:53.080Z,59.28
2023-02-15T12:14:53.102Z,59.08
2023-02-15T12:15:53.123Z,58.98
2023-02-15T12:16:53.045Z,58.78
2023-02-15T12:17:53.077Z,58.23
2023-02-15T12:18:53.028Z,58.34
2023-02-15T12:19:53.058Z,58.34
2023-02-15T12:20:52.997Z,58.54
2023-02-15T12:21:53.030Z,57.93
2023-02-15T12:22:52.998Z,58.03
2023-02-15T12:23:53.013Z,58.34
2023-02-15T12:24:52.958Z,58.54
2023-02-15T12:25:52.953Z,58.54
2023-02-15T12:26:52.968Z,58.34
2023-02-15T12:27:52.929Z,58.44
2023-02-15T12:28:52.938Z,58.54
2023-02-15T12:29:53.048Z,58.44
2023-02-15T12:30:52.926Z,58.54
2023-02-15T12:31:52.985Z,58.64
2023-02-15T12:32:54.647Z,58.31
2023-02-15T12:33:52.978Z,57.29
2023-02-15T12:34:52.859Z,56.88
2023-02-15T12:35:52.854Z,56.58
2023-02-15T12:36:52.828Z,56.24
2023-02-15T12:37:52.876Z,55.33
2023-02-15T12:38:59.466Z,54.11
2023-02-15T12:39:53.809Z,52.86
2023-02-15T12:40:52.984Z,52.45
2023-02-15T12:41:52.786Z,52.15
2023-02-15T12:42:52.816Z,51.81
2023-02-15T12:43:52.778Z,52.22
2023-02-15T12:44:52.743Z,52.02
2023-02-15T12:45:52.767Z,52.02
2023-02-15T12:46:52.787Z,51.92
2023-02-15T12:47:52.757Z,51.92
2023-02-15T12:48:52.737Z,52.22
2023-02-15T12:49:52.762Z,51.92
2023-02-15T12:50:55.703Z,52.12
2023-02-15T12:51:52.679Z,51.20